sensor_id;sensor_type;location;lat;lon;timestamp;P1;durP1;ratioP1;P2;durP2;ratioP2
25549;SDS011;13444;50.562;7.262;2022-11-13T00:00:34;21.83;;;16.97;;
25549;SDS011;13444;50.562;7.262;2022-11-13T00:02:59;24.53;;;17.20;;
25549;SDS011;13444;50.562;7.262;2022-11-13T00:05:25;29.20;;;19.93;;
25549;SDS011;13444;50.562;7.262;2022-11-13T00:07:51;31.20;;;21.10;;
25549;SDS011;13444;50.562;7.262;2022-11-13T00:10:16;32.50;;;23.63;;
25549;SDS011;13444;50.562;7.262;2022-11-13T00:12:42;35.23;;;24.17;;
25549;SDS011;13444;50.562;7.262;2022-11-13T00:15:07;35.17;;;23.90;;
25549;SDS011;13444;50.562;7.262;2022-11-13T00:17:33;35.57;;;24.00;;
25549;SDS011;13444;50.562;7.262;2022-11-13T00:19:59;32.50;;;23.60;;
25549;SDS011;13444;50.562;7.262;2022-11-13T00:22:24;31.57;;;22.70;;
25549;SDS011;13444;50.562;7.262;2022-11-13T00:24:50;32.27;;;24.00;;
25549;SDS011;13444;50.562;7.262;2022-11-13T00:27:15;33.23;;;22.00;;
25549;SDS011;13444;50.562;7.262;2022-11-13T00:29:41;31.80;;;22.87;;
25549;SDS011;13444;50.562;7.262;2022-11-13T00:32:07;35.50;;;26.13;;
25549;SDS011;13444;50.562;7.262;2022-11-13T00:34:32;33.63;;;24.57;;
25549;SDS011;13444;50.562;7.262;2022-11-13T00:36:58;37.07;;;25.47;;
25549;SDS011;13444;50.562;7.262;2022-11-13T00:39:23;38.43;;;25.23;;
25549;SDS011;13444;50.562;7.262;2022-11-13T00:41:49;38.10;;;26.00;;
25549;SDS011;13444;50.562;7.262;2022-11-13T00:44:14;38.17;;;26.80;;
25549;SDS011;13444;50.562;7.262;2022-11-13T00:46:40;40.97;;;27.17;;
25549;SDS011;13444;50.562;7.262;2022-11-13T00:49:05;38.80;;;24.93;;
25549;SDS011;13444;50.562;7.262;2022-11-13T00:51:31;39.20;;;24.30;;
25549;SDS011;13444;50.562;7.262;2022-11-13T00:53:57;35.47;;;22.43;;
25549;SDS011;13444;50.562;7.262;2022-11-13T00:56:22;32.93;;;21.50;;
25549;SDS011;13444;50.562;7.262;2022-11-13T00:58:48;33.43;;;19.57;;
25549;SDS011;13444;50.562;7.262;2022-11-13T01:01:15;27.83;;;19.20;;
25549;SDS011;13444;50.562;7.262;2022-11-13T01:03:41;30.60;;;19.23;;
25549;SDS011;13444;50.562;7.262;2022-11-13T01:06:16;31.87;;;18.87;;
25549;SDS011;13444;50.562;7.262;2022-11-13T01:08:53;29.23;;;18.93;;
25549;SDS011;13444;50.562;7.262;2022-11-13T01:11:20;41.33;;;19.57;;
25549;SDS011;13444;50.562;7.262;2022-11-13T01:13:48;31.70;;;19.87;;
25549;SDS011;13444;50.562;7.262;2022-11-13T01:16:15;43.07;;;21.13;;
25549;SDS011;13444;50.562;7.262;2022-11-13T01:18:42;62.30;;;19.80;;
25549;SDS011;13444;50.562;7.262;2022-11-13T01:21:12;127.00;;;22.30;;
25549;SDS011;13444;50.562;7.262;2022-11-13T01:23:39;119.03;;;23.03;;
25549;SDS011;13444;50.562;7.262;2022-11-13T01:26:10;93.40;;;22.40;;
25549;SDS011;13444;50.562;7.262;2022-11-13T01:28:36;35.77;;;18.97;;
25549;SDS011;13444;50.562;7.262;2022-11-13T01:31:04;66.23;;;19.57;;
25549;SDS011;13444;50.562;7.262;2022-11-13T01:33:30;79.00;;;22.10;;
25549;SDS011;13444;50.562;7.262;2022-11-13T01:36:00;58.10;;;19.93;;
25549;SDS011;13444;50.562;7.262;2022-11-13T01:38:27;67.37;;;21.13;;
25549;SDS011;13444;50.562;7.262;2022-11-13T01:40:53;66.67;;;22.80;;
25549;SDS011;13444;50.562;7.262;2022-11-13T01:43:23;47.77;;;21.03;;
25549;SDS011;13444;50.562;7.262;2022-11-13T01:48:24;39.13;;;18.93;;
25549;SDS011;13444;50.562;7.262;2022-11-13T01:50:57;37.10;;;20.23;;
25549;SDS011;13444;50.562;7.262;2022-11-13T01:53:22;49.97;;;21.20;;
25549;SDS011;13444;50.562;7.262;2022-11-13T01:55:49;44.07;;;19.30;;
25549;SDS011;13444;50.562;7.262;2022-11-13T01:58:14;60.07;;;19.90;;
25549;SDS011;13444;50.562;7.262;2022-11-13T02:00:40;78.03;;;21.87;;
25549;SDS011;13444;50.562;7.262;2022-11-13T02:03:06;39.60;;;19.80;;
25549;SDS011;13444;50.562;7.262;2022-11-13T02:05:31;36.43;;;19.27;;
25549;SDS011;13444;50.562;7.262;2022-11-13T02:07:57;39.37;;;20.37;;
25549;SDS011;13444;50.562;7.262;2022-11-13T02:10:23;69.03;;;23.17;;
25549;SDS011;13444;50.562;7.262;2022-11-13T02:12:50;93.20;;;26.30;;
25549;SDS011;13444;50.562;7.262;2022-11-13T02:15:16;49.87;;;24.33;;
25549;SDS011;13444;50.562;7.262;2022-11-13T02:17:57;54.90;;;23.70;;
25549;SDS011;13444;50.562;7.262;2022-11-13T02:25:59;38.43;;;20.97;;
25549;SDS011;13444;50.562;7.262;2022-11-13T02:28:26;71.60;;;22.10;;
25549;SDS011;13444;50.562;7.262;2022-11-13T02:30:51;50.57;;;22.63;;
25549;SDS011;13444;50.562;7.262;2022-11-13T02:33:22;69.20;;;23.27;;
25549;SDS011;13444;50.562;7.262;2022-11-13T02:35:49;47.00;;;20.47;;
25549;SDS011;13444;50.562;7.262;2022-11-13T02:38:15;57.10;;;20.27;;
25549;SDS011;13444;50.562;7.262;2022-11-13T02:40:40;41.27;;;18.30;;
25549;SDS011;13444;50.562;7.262;2022-11-13T02:43:06;25.47;;;17.83;;
25549;SDS011;13444;50.562;7.262;2022-11-13T02:45:31;104.43;;;20.00;;
25549;SDS011;13444;50.562;7.262;2022-11-13T02:48:00;52.73;;;17.17;;
25549;SDS011;13444;50.562;7.262;2022-11-13T02:50:25;28.20;;;15.80;;
25549;SDS011;13444;50.562;7.262;2022-11-13T02:52:51;54.20;;;19.27;;
25549;SDS011;13444;50.562;7.262;2022-11-13T02:55:17;72.83;;;21.40;;
25549;SDS011;13444;50.562;7.262;2022-11-13T02:57:42;47.10;;;20.80;;
25549;SDS011;13444;50.562;7.262;2022-11-13T03:00:08;50.40;;;22.10;;
25549;SDS011;13444;50.562;7.262;2022-11-13T03:02:34;97.20;;;23.37;;
25549;SDS011;13444;50.562;7.262;2022-11-13T03:04:59;106.20;;;26.90;;
25549;SDS011;13444;50.562;7.262;2022-11-13T03:07:25;77.07;;;23.20;;
25549;SDS011;13444;50.562;7.262;2022-11-13T03:09:50;90.63;;;20.50;;
25549;SDS011;13444;50.562;7.262;2022-11-13T03:12:16;64.03;;;20.43;;
25549;SDS011;13444;50.562;7.262;2022-11-13T03:14:41;68.13;;;21.57;;
25549;SDS011;13444;50.562;7.262;2022-11-13T03:17:07;101.83;;;22.33;;
25549;SDS011;13444;50.562;7.262;2022-11-13T03:19:32;44.30;;;18.57;;
25549;SDS011;13444;50.562;7.262;2022-11-13T03:21:58;78.07;;;22.53;;
25549;SDS011;13444;50.562;7.262;2022-11-13T03:24:24;59.93;;;22.33;;
25549;SDS011;13444;50.562;7.262;2022-11-13T03:26:49;80.90;;;25.40;;
25549;SDS011;13444;50.562;7.262;2022-11-13T03:29:15;60.10;;;26.13;;
25549;SDS011;13444;50.562;7.262;2022-11-13T03:31:40;61.90;;;26.67;;
25549;SDS011;13444;50.562;7.262;2022-11-13T03:34:06;48.47;;;26.93;;
25549;SDS011;13444;50.562;7.262;2022-11-13T03:36:31;85.47;;;28.17;;
25549;SDS011;13444;50.562;7.262;2022-11-13T03:38:57;56.03;;;25.60;;
25549;SDS011;13444;50.562;7.262;2022-11-13T03:41:22;48.13;;;26.93;;
25549;SDS011;13444;50.562;7.262;2022-11-13T03:43:48;58.60;;;25.97;;
25549;SDS011;13444;50.562;7.262;2022-11-13T03:46:13;53.47;;;25.67;;
25549;SDS011;13444;50.562;7.262;2022-11-13T03:48:39;55.50;;;27.67;;
25549;SDS011;13444;50.562;7.262;2022-11-13T03:51:05;77.90;;;28.23;;
25549;SDS011;13444;50.562;7.262;2022-11-13T03:53:30;70.73;;;26.30;;
25549;SDS011;13444;50.562;7.262;2022-11-13T03:55:56;51.70;;;25.17;;
25549;SDS011;13444;50.562;7.262;2022-11-13T03:58:21;43.73;;;22.83;;
25549;SDS011;13444;50.562;7.262;2022-11-13T04:00:48;48.47;;;24.13;;
25549;SDS011;13444;50.562;7.262;2022-11-13T04:03:18;44.43;;;23.33;;
25549;SDS011;13444;50.562;7.262;2022-11-13T04:05:44;41.87;;;23.87;;
25549;SDS011;13444;50.562;7.262;2022-11-13T04:08:15;42.33;;;22.43;;
25549;SDS011;13444;50.562;7.262;2022-11-13T04:10:41;36.83;;;22.67;;
25549;SDS011;13444;50.562;7.262;2022-11-13T04:13:07;43.37;;;22.67;;
25549;SDS011;13444;50.562;7.262;2022-11-13T04:15:33;34.57;;;23.33;;
25549;SDS011;13444;50.562;7.262;2022-11-13T04:17:58;36.20;;;21.50;;
25549;SDS011;13444;50.562;7.262;2022-11-13T04:20:24;39.33;;;24.07;;
25549;SDS011;13444;50.562;7.262;2022-11-13T04:22:51;37.90;;;23.37;;
25549;SDS011;13444;50.562;7.262;2022-11-13T04:25:17;37.70;;;22.23;;
25549;SDS011;13444;50.562;7.262;2022-11-13T04:27:43;33.73;;;21.63;;
25549;SDS011;13444;50.562;7.262;2022-11-13T04:30:08;33.60;;;22.30;;
25549;SDS011;13444;50.562;7.262;2022-11-13T04:32:34;41.43;;;23.00;;
25549;SDS011;13444;50.562;7.262;2022-11-13T04:35:00;37.67;;;21.73;;
25549;SDS011;13444;50.562;7.262;2022-11-13T04:37:25;45.80;;;22.87;;
25549;SDS011;13444;50.562;7.262;2022-11-13T04:39:51;36.17;;;20.63;;
25549;SDS011;13444;50.562;7.262;2022-11-13T04:42:16;29.23;;;19.60;;
25549;SDS011;13444;50.562;7.262;2022-11-13T04:45:00;41.17;;;21.90;;
25549;SDS011;13444;50.562;7.262;2022-11-13T04:47:26;37.77;;;21.97;;
25549;SDS011;13444;50.562;7.262;2022-11-13T04:49:51;40.17;;;23.30;;
25549;SDS011;13444;50.562;7.262;2022-11-13T04:52:17;33.73;;;21.20;;
25549;SDS011;13444;50.562;7.262;2022-11-13T04:54:42;37.70;;;20.33;;
25549;SDS011;13444;50.562;7.262;2022-11-13T04:57:08;40.20;;;19.90;;
25549;SDS011;13444;50.562;7.262;2022-11-13T04:59:33;43.93;;;17.73;;
25549;SDS011;13444;50.562;7.262;2022-11-13T05:01:59;30.77;;;17.53;;
25549;SDS011;13444;50.562;7.262;2022-11-13T05:04:24;43.97;;;16.97;;
25549;SDS011;13444;50.562;7.262;2022-11-13T05:06:50;62.70;;;16.67;;
25549;SDS011;13444;50.562;7.262;2022-11-13T05:09:16;32.30;;;17.93;;
25549;SDS011;13444;50.562;7.262;2022-11-13T05:11:41;35.93;;;18.63;;
25549;SDS011;13444;50.562;7.262;2022-11-13T05:14:09;30.57;;;18.90;;
25549;SDS011;13444;50.562;7.262;2022-11-13T05:16:36;58.53;;;17.93;;
25549;SDS011;13444;50.562;7.262;2022-11-13T05:19:01;40.03;;;17.37;;
25549;SDS011;13444;50.562;7.262;2022-11-13T05:21:31;47.97;;;16.20;;
25549;SDS011;13444;50.562;7.262;2022-11-13T05:23:57;58.97;;;16.97;;
25549;SDS011;13444;50.562;7.262;2022-11-13T05:26:22;40.23;;;17.73;;
25549;SDS011;13444;50.562;7.262;2022-11-13T05:28:48;28.30;;;16.67;;
25549;SDS011;13444;50.562;7.262;2022-11-13T05:31:14;24.83;;;15.67;;
25549;SDS011;13444;50.562;7.262;2022-11-13T05:33:41;32.50;;;15.27;;
25549;SDS011;13444;50.562;7.262;2022-11-13T05:36:11;37.60;;;16.20;;
25549;SDS011;13444;50.562;7.262;2022-11-13T05:38:38;98.67;;;16.00;;
25549;SDS011;13444;50.562;7.262;2022-11-13T05:41:08;60.83;;;16.53;;
25549;SDS011;13444;50.562;7.262;2022-11-13T05:43:35;33.90;;;15.67;;
25549;SDS011;13444;50.562;7.262;2022-11-13T05:46:06;28.50;;;14.80;;
25549;SDS011;13444;50.562;7.262;2022-11-13T05:48:36;25.23;;;14.07;;
25549;SDS011;13444;50.562;7.262;2022-11-13T05:51:02;34.53;;;13.77;;
25549;SDS011;13444;50.562;7.262;2022-11-13T05:53:29;25.63;;;14.60;;
25549;SDS011;13444;50.562;7.262;2022-11-13T05:56:01;30.50;;;16.70;;
25549;SDS011;13444;50.562;7.262;2022-11-13T05:58:28;24.83;;;17.40;;
25549;SDS011;13444;50.562;7.262;2022-11-13T06:01:03;37.23;;;18.77;;
25549;SDS011;13444;50.562;7.262;2022-11-13T06:03:39;32.77;;;18.77;;
25549;SDS011;13444;50.562;7.262;2022-11-13T06:06:06;38.30;;;18.93;;
25549;SDS011;13444;50.562;7.262;2022-11-13T06:08:33;37.97;;;19.77;;
25549;SDS011;13444;50.562;7.262;2022-11-13T06:11:04;38.77;;;18.40;;
25549;SDS011;13444;50.562;7.262;2022-11-13T06:13:34;37.40;;;17.87;;
25549;SDS011;13444;50.562;7.262;2022-11-13T06:16:01;34.63;;;18.37;;
25549;SDS011;13444;50.562;7.262;2022-11-13T06:18:28;34.73;;;18.80;;
25549;SDS011;13444;50.562;7.262;2022-11-13T06:20:54;30.60;;;17.80;;
25549;SDS011;13444;50.562;7.262;2022-11-13T06:23:20;47.27;;;18.53;;
25549;SDS011;13444;50.562;7.262;2022-11-13T06:25:45;49.57;;;17.77;;
25549;SDS011;13444;50.562;7.262;2022-11-13T06:28:11;30.30;;;18.50;;
25549;SDS011;13444;50.562;7.262;2022-11-13T06:30:36;35.33;;;18.77;;
25549;SDS011;13444;50.562;7.262;2022-11-13T06:33:02;33.20;;;16.03;;
25549;SDS011;13444;50.562;7.262;2022-11-13T06:35:28;42.20;;;16.07;;
25549;SDS011;13444;50.562;7.262;2022-11-13T06:37:54;60.03;;;17.60;;
25549;SDS011;13444;50.562;7.262;2022-11-13T06:40:20;35.27;;;16.87;;
25549;SDS011;13444;50.562;7.262;2022-11-13T06:42:45;37.53;;;17.43;;
25549;SDS011;13444;50.562;7.262;2022-11-13T06:45:11;43.40;;;18.87;;
25549;SDS011;13444;50.562;7.262;2022-11-13T06:47:36;38.60;;;18.57;;
25549;SDS011;13444;50.562;7.262;2022-11-13T06:50:02;59.50;;;17.93;;
25549;SDS011;13444;50.562;7.262;2022-11-13T06:52:27;47.20;;;16.00;;
25549;SDS011;13444;50.562;7.262;2022-11-13T06:54:53;82.80;;;17.20;;
25549;SDS011;13444;50.562;7.262;2022-11-13T06:57:18;33.80;;;15.40;;
25549;SDS011;13444;50.562;7.262;2022-11-13T06:59:44;32.47;;;14.73;;
25549;SDS011;13444;50.562;7.262;2022-11-13T07:02:10;33.00;;;14.40;;
25549;SDS011;13444;50.562;7.262;2022-11-13T07:04:36;44.57;;;16.13;;
25549;SDS011;13444;50.562;7.262;2022-11-13T07:07:02;38.50;;;14.77;;
25549;SDS011;13444;50.562;7.262;2022-11-13T07:09:30;48.47;;;15.63;;
25549;SDS011;13444;50.562;7.262;2022-11-13T07:11:56;34.67;;;14.83;;
25549;SDS011;13444;50.562;7.262;2022-11-13T07:14:21;34.37;;;15.27;;
25549;SDS011;13444;50.562;7.262;2022-11-13T07:16:47;30.63;;;15.23;;
25549;SDS011;13444;50.562;7.262;2022-11-13T07:19:12;31.77;;;13.90;;
25549;SDS011;13444;50.562;7.262;2022-11-13T07:21:38;25.80;;;13.90;;
25549;SDS011;13444;50.562;7.262;2022-11-13T07:24:04;31.13;;;14.53;;
25549;SDS011;13444;50.562;7.262;2022-11-13T07:26:29;24.23;;;14.30;;
25549;SDS011;13444;50.562;7.262;2022-11-13T07:28:55;28.50;;;15.63;;
25549;SDS011;13444;50.562;7.262;2022-11-13T07:31:20;26.00;;;15.27;;
25549;SDS011;13444;50.562;7.262;2022-11-13T07:33:47;33.20;;;16.53;;
25549;SDS011;13444;50.562;7.262;2022-11-13T07:36:14;29.07;;;15.47;;
25549;SDS011;13444;50.562;7.262;2022-11-13T07:38:39;26.47;;;15.93;;
25549;SDS011;13444;50.562;7.262;2022-11-13T07:41:05;26.77;;;16.03;;
25549;SDS011;13444;50.562;7.262;2022-11-13T07:43:31;28.77;;;15.57;;
25549;SDS011;13444;50.562;7.262;2022-11-13T07:45:57;26.23;;;16.07;;
25549;SDS011;13444;50.562;7.262;2022-11-13T07:48:24;29.30;;;17.00;;
25549;SDS011;13444;50.562;7.262;2022-11-13T07:50:51;28.70;;;18.27;;
25549;SDS011;13444;50.562;7.262;2022-11-13T07:53:17;27.73;;;15.70;;
25549;SDS011;13444;50.562;7.262;2022-11-13T07:55:44;24.60;;;15.70;;
25549;SDS011;13444;50.562;7.262;2022-11-13T07:58:10;27.13;;;15.27;;
25549;SDS011;13444;50.562;7.262;2022-11-13T08:00:35;24.53;;;15.93;;
25549;SDS011;13444;50.562;7.262;2022-11-13T08:03:05;30.83;;;15.70;;
25549;SDS011;13444;50.562;7.262;2022-11-13T08:05:32;29.03;;;15.73;;
25549;SDS011;13444;50.562;7.262;2022-11-13T08:07:58;23.60;;;15.23;;
25549;SDS011;13444;50.562;7.262;2022-11-13T08:10:23;27.90;;;15.23;;
25549;SDS011;13444;50.562;7.262;2022-11-13T08:12:55;20.90;;;14.03;;
25549;SDS011;13444;50.562;7.262;2022-11-13T08:15:26;22.03;;;14.30;;
25549;SDS011;13444;50.562;7.262;2022-11-13T08:17:53;22.70;;;14.57;;
25549;SDS011;13444;50.562;7.262;2022-11-13T08:20:23;19.53;;;12.87;;
25549;SDS011;13444;50.562;7.262;2022-11-13T08:22:51;20.80;;;13.30;;
25549;SDS011;13444;50.562;7.262;2022-11-13T08:25:20;23.90;;;13.77;;
25549;SDS011;13444;50.562;7.262;2022-11-13T08:27:45;24.57;;;13.23;;
25549;SDS011;13444;50.562;7.262;2022-11-13T08:30:11;20.43;;;12.77;;
25549;SDS011;13444;50.562;7.262;2022-11-13T08:32:37;16.73;;;11.80;;
25549;SDS011;13444;50.562;7.262;2022-11-13T08:35:03;14.30;;;10.47;;
25549;SDS011;13444;50.562;7.262;2022-11-13T08:37:29;16.33;;;10.77;;
25549;SDS011;13444;50.562;7.262;2022-11-13T08:39:56;15.87;;;10.70;;
25549;SDS011;13444;50.562;7.262;2022-11-13T08:42:21;14.13;;;10.03;;
25549;SDS011;13444;50.562;7.262;2022-11-13T08:44:47;17.97;;;10.80;;
25549;SDS011;13444;50.562;7.262;2022-11-13T08:47:13;18.10;;;10.80;;
25549;SDS011;13444;50.562;7.262;2022-11-13T08:49:38;15.83;;;11.47;;
25549;SDS011;13444;50.562;7.262;2022-11-13T08:52:04;14.13;;;10.00;;
25549;SDS011;13444;50.562;7.262;2022-11-13T08:54:29;14.50;;;10.07;;
25549;SDS011;13444;50.562;7.262;2022-11-13T08:56:55;11.53;;;9.00;;
25549;SDS011;13444;50.562;7.262;2022-11-13T08:59:23;10.33;;;7.83;;
25549;SDS011;13444;50.562;7.262;2022-11-13T09:01:49;7.53;;;6.10;;
25549;SDS011;13444;50.562;7.262;2022-11-13T09:04:17;8.17;;;6.73;;
25549;SDS011;13444;50.562;7.262;2022-11-13T09:06:42;7.10;;;5.60;;
25549;SDS011;13444;50.562;7.262;2022-11-13T09:09:08;7.57;;;6.30;;
25549;SDS011;13444;50.562;7.262;2022-11-13T09:11:33;10.83;;;7.83;;
25549;SDS011;13444;50.562;7.262;2022-11-13T09:13:59;12.10;;;9.43;;
25549;SDS011;13444;50.562;7.262;2022-11-13T09:16:25;13.23;;;9.73;;
25549;SDS011;13444;50.562;7.262;2022-11-13T09:18:50;14.33;;;9.50;;
25549;SDS011;13444;50.562;7.262;2022-11-13T09:21:16;11.20;;;8.73;;
25549;SDS011;13444;50.562;7.262;2022-11-13T09:23:42;10.00;;;7.90;;
25549;SDS011;13444;50.562;7.262;2022-11-13T09:26:08;11.20;;;9.00;;
25549;SDS011;13444;50.562;7.262;2022-11-13T09:28:33;18.70;;;10.90;;
25549;SDS011;13444;50.562;7.262;2022-11-13T09:31:02;14.45;;;11.02;;
25549;SDS011;13444;50.562;7.262;2022-11-13T09:33:28;12.57;;;8.82;;
25549;SDS011;13444;50.562;7.262;2022-11-13T09:35:54;11.05;;;8.25;;
25549;SDS011;13444;50.562;7.262;2022-11-13T09:38:23;10.25;;;7.10;;
25549;SDS011;13444;50.562;7.262;2022-11-13T09:41:00;10.68;;;7.15;;
25549;SDS011;13444;50.562;7.262;2022-11-13T09:43:45;11.68;;;8.43;;
25549;SDS011;13444;50.562;7.262;2022-11-13T09:46:17;11.57;;;8.25;;
25549;SDS011;13444;50.562;7.262;2022-11-13T09:48:54;8.40;;;7.03;;
25549;SDS011;13444;50.562;7.262;2022-11-13T09:51:33;8.27;;;6.35;;
25549;SDS011;13444;50.562;7.262;2022-11-13T09:54:05;7.53;;;6.63;;
25549;SDS011;13444;50.562;7.262;2022-11-13T09:56:42;8.23;;;6.72;;
25549;SDS011;13444;50.562;7.262;2022-11-13T09:59:19;8.43;;;6.95;;
25549;SDS011;13444;50.562;7.262;2022-11-13T10:05:11;6.55;;;5.95;;
25549;SDS011;13444;50.562;7.262;2022-11-13T10:13:09;7.40;;;5.63;;
25549;SDS011;13444;50.562;7.262;2022-11-13T10:15:38;8.18;;;5.55;;
25549;SDS011;13444;50.562;7.262;2022-11-13T10:18:17;7.72;;;6.43;;
25549;SDS011;13444;50.562;7.262;2022-11-13T10:20:50;7.80;;;6.13;;
25549;SDS011;13444;50.562;7.262;2022-11-13T10:23:31;6.45;;;5.40;;
25549;SDS011;13444;50.562;7.262;2022-11-13T10:26:20;7.13;;;5.45;;
25549;SDS011;13444;50.562;7.262;2022-11-13T10:28:47;7.78;;;5.40;;
25549;SDS011;13444;50.562;7.262;2022-11-13T10:31:24;6.90;;;6.10;;
25549;SDS011;13444;50.562;7.262;2022-11-13T10:33:50;6.57;;;5.55;;
25549;SDS011;13444;50.562;7.262;2022-11-13T10:36:41;7.88;;;5.32;;
25549;SDS011;13444;50.562;7.262;2022-11-13T10:39:16;6.20;;;5.60;;
25549;SDS011;13444;50.562;7.262;2022-11-13T10:41:48;6.80;;;6.03;;
25549;SDS011;13444;50.562;7.262;2022-11-13T10:44:31;7.82;;;5.95;;
25549;SDS011;13444;50.562;7.262;2022-11-13T10:47:13;6.68;;;5.38;;
25549;SDS011;13444;50.562;7.262;2022-11-13T10:49:43;7.00;;;5.40;;
25549;SDS011;13444;50.562;7.262;2022-11-13T10:52:20;7.20;;;6.07;;
25549;SDS011;13444;50.562;7.262;2022-11-13T10:55:03;6.95;;;5.40;;
25549;SDS011;13444;50.562;7.262;2022-11-13T10:57:56;6.15;;;5.55;;
25549;SDS011;13444;50.562;7.262;2022-11-13T11:00:29;7.18;;;6.43;;
25549;SDS011;13444;50.562;7.262;2022-11-13T11:02:56;7.90;;;6.45;;
25549;SDS011;13444;50.562;7.262;2022-11-13T11:05:23;6.75;;;5.57;;
25549;SDS011;13444;50.562;7.262;2022-11-13T11:07:49;6.60;;;5.90;;
25549;SDS011;13444;50.562;7.262;2022-11-13T11:12:58;6.35;;;5.63;;
25549;SDS011;13444;50.562;7.262;2022-11-13T11:15:49;6.38;;;5.50;;
25549;SDS011;13444;50.562;7.262;2022-11-13T11:18:23;6.82;;;6.03;;
25549;SDS011;13444;50.562;7.262;2022-11-13T11:20:55;6.55;;;5.88;;
25549;SDS011;13444;50.562;7.262;2022-11-13T11:23:33;7.72;;;5.90;;
25549;SDS011;13444;50.562;7.262;2022-11-13T11:26:20;7.13;;;6.13;;
25549;SDS011;13444;50.562;7.262;2022-11-13T11:29:26;6.65;;;5.95;;
25549;SDS011;13444;50.562;7.262;2022-11-13T11:31:50;6.65;;;5.95;;
25549;SDS011;13444;50.562;7.262;2022-11-13T11:37:14;5.85;;;5.25;;
25549;SDS011;13444;50.562;7.262;2022-11-13T11:39:46;7.20;;;5.65;;
25549;SDS011;13444;50.562;7.262;2022-11-13T11:42:33;6.60;;;5.85;;
25549;SDS011;13444;50.562;7.262;2022-11-13T11:45:10;5.97;;;5.38;;
25549;SDS011;13444;50.562;7.262;2022-11-13T11:47:37;5.63;;;5.05;;
25549;SDS011;13444;50.562;7.262;2022-11-13T11:50:04;6.68;;;5.45;;
25549;SDS011;13444;50.562;7.262;2022-11-13T11:52:52;5.97;;;5.30;;
25549;SDS011;13444;50.562;7.262;2022-11-13T11:55:42;6.15;;;5.10;;
25549;SDS011;13444;50.562;7.262;2022-11-13T11:58:24;6.43;;;5.40;;
25549;SDS011;13444;50.562;7.262;2022-11-13T12:01:03;7.88;;;5.97;;
25549;SDS011;13444;50.562;7.262;2022-11-13T12:06:44;6.45;;;5.03;;
25549;SDS011;13444;50.562;7.262;2022-11-13T12:09:23;4.43;;;4.03;;
25549;SDS011;13444;50.562;7.262;2022-11-13T12:12:02;4.72;;;3.92;;
25549;SDS011;13444;50.562;7.262;2022-11-13T12:18:02;6.20;;;4.00;;
25549;SDS011;13444;50.562;7.262;2022-11-13T12:34:40;6.20;;;3.88;;
25549;SDS011;13444;50.562;7.262;2022-11-13T12:37:10;5.72;;;3.78;;
25549;SDS011;13444;50.562;7.262;2022-11-13T12:39:55;5.65;;;4.18;;
25549;SDS011;13444;50.562;7.262;2022-11-13T12:42:44;6.38;;;4.32;;
25549;SDS011;13444;50.562;7.262;2022-11-13T12:45:19;5.82;;;4.30;;
25549;SDS011;13444;50.562;7.262;2022-11-13T12:50:38;7.57;;;4.88;;
25549;SDS011;13444;50.562;7.262;2022-11-13T12:53:04;4.90;;;4.40;;
25549;SDS011;13444;50.562;7.262;2022-11-13T12:55:34;4.63;;;3.90;;
25549;SDS011;13444;50.562;7.262;2022-11-13T12:58:18;5.22;;;3.80;;
25549;SDS011;13444;50.562;7.262;2022-11-13T13:01:04;5.05;;;4.20;;
25549;SDS011;13444;50.562;7.262;2022-11-13T13:09:26;9.23;;;6.30;;
25549;SDS011;13444;50.562;7.262;2022-11-13T13:17:27;7.78;;;5.60;;
25549;SDS011;13444;50.562;7.262;2022-11-13T13:20:00;7.70;;;5.70;;
25549;SDS011;13444;50.562;7.262;2022-11-13T13:22:29;5.57;;;4.38;;
25549;SDS011;13444;50.562;7.262;2022-11-13T13:25:02;5.43;;;4.80;;
25549;SDS011;13444;50.562;7.262;2022-11-13T13:27:37;5.18;;;4.63;;
25549;SDS011;13444;50.562;7.262;2022-11-13T13:30:20;5.85;;;5.00;;
25549;SDS011;13444;50.562;7.262;2022-11-13T13:33:21;7.35;;;4.93;;
25549;SDS011;13444;50.562;7.262;2022-11-13T13:36:03;6.30;;;5.00;;
25549;SDS011;13444;50.562;7.262;2022-11-13T13:38:35;7.50;;;5.47;;
25549;SDS011;13444;50.562;7.262;2022-11-13T13:43:54;5.40;;;4.80;;
25549;SDS011;13444;50.562;7.262;2022-11-13T13:46:42;8.02;;;5.15;;
25549;SDS011;13444;50.562;7.262;2022-11-13T13:49:11;6.20;;;4.45;;
25549;SDS011;13444;50.562;7.262;2022-11-13T13:51:41;5.60;;;4.53;;
25549;SDS011;13444;50.562;7.262;2022-11-13T13:54:08;8.02;;;4.93;;
25549;SDS011;13444;50.562;7.262;2022-11-13T13:56:40;4.90;;;4.15;;
25549;SDS011;13444;50.562;7.262;2022-11-13T13:59:48;8.82;;;5.20;;
25549;SDS011;13444;50.562;7.262;2022-11-13T14:02:00;6.35;;;4.80;;
25549;SDS011;13444;50.562;7.262;2022-11-13T14:04:27;6.03;;;4.70;;
25549;SDS011;13444;50.562;7.262;2022-11-13T14:06:57;5.80;;;4.78;;
25549;SDS011;13444;50.562;7.262;2022-11-13T14:09:25;7.22;;;4.43;;
25549;SDS011;13444;50.562;7.262;2022-11-13T14:11:56;7.35;;;5.00;;
25549;SDS011;13444;50.562;7.262;2022-11-13T14:14:40;5.25;;;4.53;;
25549;SDS011;13444;50.562;7.262;2022-11-13T14:17:07;5.97;;;5.03;;
25549;SDS011;13444;50.562;7.262;2022-11-13T14:19:34;6.63;;;4.53;;
25549;SDS011;13444;50.562;7.262;2022-11-13T14:22:01;5.03;;;4.53;;
25549;SDS011;13444;50.562;7.262;2022-11-13T14:24:36;6.78;;;5.32;;
25549;SDS011;13444;50.562;7.262;2022-11-13T14:27:10;7.78;;;5.30;;
25549;SDS011;13444;50.562;7.262;2022-11-13T14:29:50;7.60;;;4.80;;
25549;SDS011;13444;50.562;7.262;2022-11-13T14:32:30;5.47;;;4.70;;
25549;SDS011;13444;50.562;7.262;2022-11-13T14:34:58;7.13;;;4.97;;
25549;SDS011;13444;50.562;7.262;2022-11-13T14:37:33;6.43;;;5.00;;
25549;SDS011;13444;50.562;7.262;2022-11-13T14:40:18;8.45;;;5.47;;
25549;SDS011;13444;50.562;7.262;2022-11-13T14:43:01;6.30;;;5.30;;
25549;SDS011;13444;50.562;7.262;2022-11-13T14:45:31;7.30;;;5.35;;
25549;SDS011;13444;50.562;7.262;2022-11-13T14:47:59;5.28;;;4.40;;
25549;SDS011;13444;50.562;7.262;2022-11-13T14:51:52;6.18;;;4.82;;
25549;SDS011;13444;50.562;7.262;2022-11-13T14:53:59;7.28;;;5.38;;
25549;SDS011;13444;50.562;7.262;2022-11-13T14:56:30;7.25;;;5.55;;
25549;SDS011;13444;50.562;7.262;2022-11-13T15:01:53;8.95;;;5.32;;
25549;SDS011;13444;50.562;7.262;2022-11-13T15:04:20;7.40;;;5.57;;
25549;SDS011;13444;50.562;7.262;2022-11-13T15:06:46;8.43;;;5.72;;
25549;SDS011;13444;50.562;7.262;2022-11-13T15:09:13;7.07;;;5.35;;
25549;SDS011;13444;50.562;7.262;2022-11-13T15:11:41;8.73;;;5.28;;
25549;SDS011;13444;50.562;7.262;2022-11-13T15:14:10;6.15;;;5.28;;
25549;SDS011;13444;50.562;7.262;2022-11-13T15:16:37;5.63;;;4.57;;
25549;SDS011;13444;50.562;7.262;2022-11-13T15:21:46;6.75;;;4.97;;
25549;SDS011;13444;50.562;7.262;2022-11-13T15:24:12;5.90;;;5.30;;
25549;SDS011;13444;50.562;7.262;2022-11-13T15:26:38;8.77;;;6.05;;
25549;SDS011;13444;50.562;7.262;2022-11-13T15:29:04;7.32;;;5.95;;
25549;SDS011;13444;50.562;7.262;2022-11-13T15:31:34;7.15;;;6.03;;
25549;SDS011;13444;50.562;7.262;2022-11-13T15:34:05;13.35;;;9.00;;
25549;SDS011;13444;50.562;7.262;2022-11-13T15:36:33;15.40;;;10.13;;
25549;SDS011;13444;50.562;7.262;2022-11-13T15:38:58;13.90;;;9.80;;
25549;SDS011;13444;50.562;7.262;2022-11-13T15:41:25;11.07;;;8.48;;
25549;SDS011;13444;50.562;7.262;2022-11-13T15:43:53;9.90;;;7.75;;
25549;SDS011;13444;50.562;7.262;2022-11-13T15:46:20;9.77;;;7.57;;
25549;SDS011;13444;50.562;7.262;2022-11-13T15:48:47;10.30;;;7.30;;